Time;durP1;ratioP1;P1;durP2;ratioP2;P2;SDS_P1;SDS_P2;PMS_P1;PMS_P2;Temp;Humidity;BMP_temperature;BMP_pressure;BME280_temperature;BME280_humidity;BME280_pressure;Samples;Min_cycle;Max_cycle;Signal;HPM_P1;HPM_P2
2023/12/25 00:02:14;;;;;;;13.50;13.00;;;10.90;99.90;;;;;;5118236;27;20208;-64
2023/12/25 00:04:41;;;;;;;14.03;13.53;;;10.90;99.90;;;;;;5121531;27;20213;-64
2023/12/25 00:07:10;;;;;;;12.67;12.27;;;10.90;99.90;;;;;;5123743;27;20212;-63
2023/12/25 00:09:37;;;;;;;13.60;13.10;;;10.90;99.90;;;;;;5118764;27;20321;-65
2023/12/25 00:12:04;;;;;;;12.37;11.97;;;10.80;99.90;;;;;;5122293;27;20202;-66
2023/12/25 00:14:31;;;;;;;12.77;12.37;;;10.80;99.90;;;;;;5112709;27;20231;-66
2023/12/25 00:16:57;;;;;;;11.47;11.07;;;10.80;99.90;;;;;;5122045;27;20909;-65
2023/12/25 00:19:26;;;;;;;13.00;12.60;;;10.80;99.90;;;;;;5123730;27;20217;-65
2023/12/25 00:21:53;;;;;;;13.67;13.17;;;10.90;99.90;;;;;;5124884;27;20205;-66
2023/12/25 00:24:20;;;;;;;13.93;13.43;;;10.90;99.90;;;;;;5118718;27;20198;-65
2023/12/25 00:26:46;;;;;;;13.63;13.13;;;10.90;99.90;;;;;;5121936;27;20205;-63
2023/12/25 00:29:13;;;;;;;13.97;13.47;;;10.90;99.90;;;;;;5112951;28;20649;-64
2023/12/25 00:31:40;;;;;;;14.23;13.73;;;10.80;99.90;;;;;;5120600;27;20205;-63
2023/12/25 00:34:07;;;;;;;14.03;13.53;;;10.90;99.90;;;;;;5117202;28;20206;-64
2023/12/25 00:36:36;;;;;;;13.07;12.67;;;10.90;99.90;;;;;;5121440;28;20234;-64
2023/12/25 00:39:02;;;;;;;12.60;12.20;;;10.90;99.90;;;;;;5117839;27;20202;-63
2023/12/25 00:41:31;;;;;;;13.03;12.57;;;10.90;99.90;;;;;;5121615;28;20201;-65
2023/12/25 00:43:58;;;;;;;12.80;12.40;;;10.90;99.90;;;;;;5122142;27;20292;-64
2023/12/25 00:46:25;;;;;;;12.50;12.10;;;10.90;99.90;;;;;;5124199;28;20243;-64
2023/12/25 00:48:51;;;;;;;12.70;12.30;;;10.90;99.90;;;;;;5130642;28;20202;-65
2023/12/25 00:51:18;;;;;;;13.17;12.77;;;11.00;99.90;;;;;;5139858;27;20197;-66
2023/12/25 00:53:46;;;;;;;13.10;12.70;;;11.10;99.90;;;;;;5142796;28;20219;-65
2023/12/25 00:56:13;;;;;;;12.67;12.27;;;11.10;99.90;;;;;;5121063;28;20230;-64
2023/12/25 00:58:39;;;;;;;11.30;10.90;;;11.00;99.90;;;;;;5134040;28;20206;-68
2023/12/25 01:01:06;;;;;;;11.97;11.57;;;11.10;99.90;;;;;;5132201;28;20205;-65
2023/12/25 01:03:33;;;;;;;11.93;11.53;;;11.10;99.90;;;;;;5138261;27;20194;-66
2023/12/25 01:06:00;;;;;;;12.07;11.67;;;11.10;99.90;;;;;;5123879;27;20190;-66
2023/12/25 01:08:26;;;;;;;12.00;11.60;;;11.10;99.90;;;;;;5128380;28;20640;-65
2023/12/25 01:10:54;;;;;;;11.67;11.27;;;11.20;99.90;;;;;;5123894;27;20221;-65
2023/12/25 01:13:21;;;;;;;13.17;12.77;;;11.20;99.90;;;;;;5120513;28;20644;-64
2023/12/25 01:15:48;;;;;;;12.10;11.70;;;11.20;99.90;;;;;;5121501;28;20218;-66
2023/12/25 01:18:15;;;;;;;12.90;12.50;;;11.30;99.90;;;;;;5113299;27;20210;-66
2023/12/25 01:20:43;;;;;;;11.93;11.53;;;11.40;99.90;;;;;;5118949;27;20225;-65
2023/12/25 01:23:10;;;;;;;12.57;12.17;;;11.40;99.90;;;;;;5116616;27;20198;-64
2023/12/25 01:25:37;;;;;;;13.00;12.60;;;11.40;99.90;;;;;;5121970;28;20195;-64
2023/12/25 01:28:05;;;;;;;12.50;12.10;;;11.30;99.90;;;;;;5120084;27;20205;-64
2023/12/25 01:30:32;;;;;;;12.10;11.70;;;11.40;99.90;;;;;;5119580;28;20232;-65
2023/12/25 01:32:59;;;;;;;11.13;10.73;;;11.40;99.90;;;;;;5123407;27;20193;-65
2023/12/25 01:35:25;;;;;;;11.70;11.30;;;11.40;99.90;;;;;;5114115;28;20218;-65
2023/12/25 01:37:52;;;;;;;11.93;11.53;;;11.40;99.90;;;;;;5126452;28;20570;-65
2023/12/25 01:40:19;;;;;;;11.83;11.43;;;11.50;99.90;;;;;;5121149;27;20225;-64
2023/12/25 01:42:45;;;;;;;11.77;11.37;;;11.50;99.90;;;;;;5117401;27;20197;-64
2023/12/25 01:45:13;;;;;;;11.70;11.23;;;11.50;99.90;;;;;;5126027;27;20208;-64
2023/12/25 01:47:41;;;;;;;11.40;11.00;;;11.60;99.90;;;;;;5127544;27;20211;-64
2023/12/25 01:50:09;;;;;;;11.87;11.47;;;11.60;99.90;;;;;;5125762;27;20221;-64
2023/12/25 01:52:36;;;;;;;11.23;10.83;;;11.50;99.90;;;;;;5127363;27;20205;-64
2023/12/25 01:55:04;;;;;;;11.23;10.83;;;11.50;99.90;;;;;;5124938;27;20210;-63
2023/12/25 01:57:33;;;;;;;11.47;11.07;;;11.50;99.90;;;;;;5129958;27;20206;-65
2023/12/25 01:59:59;;;;;;;11.67;11.27;;;11.60;99.90;;;;;;5119912;27;20221;-64
2023/12/25 02:02:28;;;;;;;11.97;11.57;;;11.60;99.90;;;;;;5130957;27;20193;-66
2023/12/25 02:04:54;;;;;;;11.30;10.90;;;11.50;99.90;;;;;;5120896;27;20193;-66
2023/12/25 02:07:22;;;;;;;11.83;11.43;;;11.50;99.90;;;;;;5123204;27;20201;-66
2023/12/25 02:09:49;;;;;;;12.00;11.60;;;11.40;99.90;;;;;;5132007;27;20233;-66
2023/12/25 02:12:16;;;;;;;12.50;12.10;;;11.40;99.90;;;;;;5118613;27;20231;-67
2023/12/25 02:14:43;;;;;;;12.03;11.63;;;11.30;99.90;;;;;;5131910;27;20212;-66
2023/12/25 02:17:12;;;;;;;12.13;11.73;;;11.20;99.90;;;;;;5125696;27;20217;-65
2023/12/25 02:19:43;;;;;;;12.37;11.97;;;11.10;99.90;;;;;;5132675;27;20227;-65
2023/12/25 02:22:11;;;;;;;12.70;12.30;;;11.10;99.90;;;;;;5122134;27;20301;-65
2023/12/25 02:24:44;;;;;;;12.30;11.90;;;11.10;99.90;;;;;;5115065;28;20206;-65
2023/12/25 02:27:13;;;;;;;11.90;11.50;;;11.10;99.90;;;;;;5115158;28;20190;-66
2023/12/25 02:29:40;;;;;;;12.13;11.73;;;11.10;99.90;;;;;;5124640;28;20704;-65
2023/12/25 02:32:06;;;;;;;12.47;12.07;;;11.20;99.90;;;;;;5115106;28;20740;-66
2023/12/25 02:34:33;;;;;;;11.90;11.50;;;11.20;99.90;;;;;;5114029;27;20202;-65
2023/12/25 02:37:00;;;;;;;11.70;11.30;;;11.20;99.90;;;;;;5113609;28;20218;-65
2023/12/25 02:39:27;;;;;;;13.07;12.67;;;11.20;99.90;;;;;;5110243;28;20243;-65
2023/12/25 02:41:53;;;;;;;12.13;11.73;;;11.30;99.90;;;;;;5106522;28;20202;-65
2023/12/25 02:44:21;;;;;;;11.87;11.47;;;11.30;99.90;;;;;;5112426;28;20202;-66
2023/12/25 02:46:48;;;;;;;12.03;11.63;;;11.30;99.90;;;;;;5111781;28;20214;-65
2023/12/25 02:49:15;;;;;;;11.87;11.47;;;11.30;99.90;;;;;;5113750;28;20218;-65
2023/12/25 02:51:41;;;;;;;11.43;11.03;;;11.30;99.90;;;;;;5114152;28;20559;-65
2023/12/25 02:54:08;;;;;;;12.10;11.70;;;11.30;99.90;;;;;;5113195;27;20209;-65
2023/12/25 02:56:35;;;;;;;12.07;11.67;;;11.30;99.90;;;;;;5118626;28;20263;-65
2023/12/25 02:59:02;;;;;;;11.80;11.40;;;11.30;99.90;;;;;;5123046;28;20238;-66
2023/12/25 03:01:30;;;;;;;12.13;11.73;;;11.30;99.90;;;;;;5121428;28;20198;-66
2023/12/25 03:03:56;;;;;;;12.20;11.80;;;11.30;99.90;;;;;;5105683;28;20206;-65
2023/12/25 03:06:23;;;;;;;11.37;10.97;;;11.30;99.90;;;;;;5113497;28;20536;-65
2023/12/25 03:08:50;;;;;;;11.40;11.00;;;11.40;99.90;;;;;;5112264;28;20237;-65
2023/12/25 03:11:17;;;;;;;11.90;11.50;;;11.40;99.90;;;;;;5113823;28;20198;-65
2023/12/25 03:13:44;;;;;;;11.60;11.20;;;11.40;99.90;;;;;;5111504;27;20209;-66
2023/12/25 03:16:10;;;;;;;11.40;11.00;;;11.40;99.90;;;;;;5117122;28;20233;-66
2023/12/25 03:18:38;;;;;;;11.73;11.33;;;11.40;99.90;;;;;;5112570;28;20210;-66
2023/12/25 03:21:06;;;;;;;11.17;10.77;;;11.40;99.90;;;;;;5118923;28;20245;-67
2023/12/25 03:23:32;;;;;;;11.03;10.63;;;11.50;99.90;;;;;;5112581;28;20206;-67
2023/12/25 03:25:59;;;;;;;10.77;10.43;;;11.50;99.90;;;;;;5112620;28;20201;-66
2023/12/25 03:28:27;;;;;;;11.10;10.70;;;11.60;99.90;;;;;;5117438;28;20209;-66
2023/12/25 03:30:54;;;;;;;11.13;10.73;;;11.60;99.90;;;;;;5116783;28;20612;-64
2023/12/25 03:33:21;;;;;;;11.53;11.13;;;11.60;99.90;;;;;;5112077;28;20221;-65
2023/12/25 03:35:49;;;;;;;11.80;11.40;;;11.70;99.90;;;;;;5117175;28;20217;-66
2023/12/25 03:38:16;;;;;;;11.97;11.57;;;11.70;99.90;;;;;;5118423;28;20660;-66
2023/12/25 03:40:42;;;;;;;12.43;12.03;;;11.70;99.90;;;;;;5116362;28;20264;-65
2023/12/25 03:43:09;;;;;;;12.40;12.00;;;11.80;99.90;;;;;;5115350;28;20213;-65
2023/12/25 03:45:36;;;;;;;13.20;12.80;;;11.70;99.90;;;;;;5115599;28;20194;-66
2023/12/25 03:48:03;;;;;;;11.80;11.40;;;11.70;99.90;;;;;;5115727;28;20202;-66
2023/12/25 03:50:29;;;;;;;11.80;11.40;;;11.80;99.90;;;;;;5115046;28;20243;-67
2023/12/25 03:52:57;;;;;;;12.60;12.20;;;11.80;99.90;;;;;;5114384;28;20198;-65
2023/12/25 03:55:23;;;;;;;12.90;12.50;;;11.80;99.90;;;;;;5113184;28;20229;-66
2023/12/25 03:57:50;;;;;;;12.50;12.10;;;11.80;99.90;;;;;;5112357;27;20198;-66
2023/12/25 04:00:17;;;;;;;12.13;11.73;;;11.80;99.90;;;;;;5113422;28;20220;-66
2023/12/25 04:02:44;;;;;;;12.63;12.23;;;11.80;99.90;;;;;;5111242;28;20205;-65
2023/12/25 04:05:10;;;;;;;12.63;12.23;;;11.80;99.90;;;;;;5112347;28;20212;-65
2023/12/25 04:07:36;;;;;;;13.23;12.83;;;11.80;99.90;;;;;;5122212;28;20262;-66
2023/12/25 04:10:06;;;;;;;12.33;11.93;;;11.80;99.90;;;;;;5113152;28;20228;-65
2023/12/25 04:12:33;;;;;;;12.40;12.00;;;11.80;99.90;;;;;;5111511;28;20199;-66
2023/12/25 04:14:59;;;;;;;12.63;12.23;;;11.80;99.90;;;;;;5112220;28;20198;-65
2023/12/25 04:17:28;;;;;;;12.03;11.63;;;11.80;99.90;;;;;;5112134;28;20228;-66
2023/12/25 04:19:54;;;;;;;12.17;11.77;;;11.80;99.90;;;;;;5112447;28;20254;-65
2023/12/25 04:22:21;;;;;;;13.17;12.77;;;11.80;99.90;;;;;;5111438;28;20201;-66
2023/12/25 04:24:48;;;;;;;12.40;12.00;;;11.80;99.90;;;;;;5111343;28;20216;-65
2023/12/25 04:27:18;;;;;;;12.50;12.10;;;11.80;99.90;;;;;;5112507;28;20285;-65
2023/12/25 04:29:44;;;;;;;12.60;12.20;;;11.80;99.90;;;;;;5111975;28;20222;-65
2023/12/25 04:32:11;;;;;;;12.00;11.60;;;11.80;99.90;;;;;;5113666;28;20202;-64
2023/12/25 04:34:38;;;;;;;12.37;11.97;;;11.70;99.90;;;;;;5117121;27;20751;-67
2023/12/25 04:37:05;;;;;;;12.10;11.70;;;11.70;99.90;;;;;;5115932;28;20209;-65
2023/12/25 04:39:33;;;;;;;12.93;12.53;;;11.70;99.90;;;;;;5116664;28;20222;-65
2023/12/25 04:41:59;;;;;;;13.00;12.60;;;11.70;99.90;;;;;;5116377;27;20217;-66
2023/12/25 04:44:28;;;;;;;13.13;12.73;;;11.70;99.90;;;;;;5114353;28;20201;-66
2023/12/25 04:46:54;;;;;;;13.73;13.23;;;11.70;99.90;;;;;;5116065;27;20204;-65
2023/12/25 04:49:21;;;;;;;12.90;12.50;;;11.70;99.90;;;;;;5114675;28;20225;-65
2023/12/25 04:51:48;;;;;;;13.67;13.17;;;11.70;99.90;;;;;;5118394;27;20213;-67
2023/12/25 04:54:14;;;;;;;13.20;12.80;;;11.70;99.90;;;;;;5114151;28;20560;-65
2023/12/25 04:56:41;;;;;;;13.10;12.70;;;11.70;99.90;;;;;;5116819;28;20220;-65
2023/12/25 04:59:09;;;;;;;12.50;12.10;;;11.80;99.90;;;;;;5114508;28;20617;-66
2023/12/25 05:01:37;;;;;;;12.60;12.20;;;11.80;99.90;;;;;;5116593;27;20605;-65
2023/12/25 05:04:04;;;;;;;13.13;12.73;;;11.70;99.90;;;;;;5114965;27;20197;-65
2023/12/25 05:06:30;;;;;;;13.70;13.20;;;11.70;99.90;;;;;;5115294;28;20201;-66
2023/12/25 05:08:57;;;;;;;12.83;12.43;;;11.60;99.90;;;;;;5115914;27;20209;-65
2023/12/25 05:11:24;;;;;;;13.57;13.10;;;11.60;99.90;;;;;;5115024;28;20206;-65
2023/12/25 05:13:50;;;;;;;13.40;13.00;;;11.60;99.90;;;;;;5118062;27;20213;-66
2023/12/25 05:16:17;;;;;;;12.93;12.53;;;11.60;99.90;;;;;;5121921;28;20217;-66
2023/12/25 05:18:45;;;;;;;12.87;12.47;;;11.60;99.90;;;;;;5116773;28;20220;-66
2023/12/25 05:21:12;;;;;;;13.23;12.73;;;11.60;99.90;;;;;;5115016;28;20735;-66
2023/12/25 05:23:39;;;;;;;13.37;12.97;;;11.60;99.90;;;;;;5117286;27;20576;-67
2023/12/25 05:26:06;;;;;;;13.13;12.73;;;11.50;99.90;;;;;;5119453;27;20272;-66
2023/12/25 05:28:32;;;;;;;14.20;13.70;;;11.50;99.90;;;;;;5121962;27;20213;-66
2023/12/25 05:30:59;;;;;;;14.03;13.53;;;11.50;99.90;;;;;;5121065;27;20722;-67
2023/12/25 05:33:26;;;;;;;14.03;13.53;;;11.50;99.90;;;;;;5121567;27;20198;-65
2023/12/25 05:35:55;;;;;;;13.93;13.43;;;11.50;99.90;;;;;;5123959;27;20225;-65
2023/12/25 05:38:22;;;;;;;13.70;13.23;;;11.50;99.90;;;;;;5117986;27;20202;-65
2023/12/25 05:40:49;;;;;;;13.80;13.30;;;11.50;99.90;;;;;;5121361;27;20561;-65
2023/12/25 05:43:16;;;;;;;13.97;13.47;;;11.50;99.90;;;;;;5122089;27;20194;-65
2023/12/25 05:45:45;;;;;;;14.50;14.00;;;11.60;99.90;;;;;;5124207;27;20202;-66
2023/12/25 05:48:12;;;;;;;13.47;13.03;;;11.50;99.90;;;;;;5123795;27;20202;-65
2023/12/25 05:50:38;;;;;;;14.07;13.57;;;11.50;99.90;;;;;;5122321;27;20226;-65
2023/12/25 05:53:07;;;;;;;13.50;13.00;;;11.50;99.90;;;;;;5116744;27;20202;-68
2023/12/25 05:55:33;;;;;;;14.00;13.50;;;11.40;99.90;;;;;;5120245;27;20198;-66
2023/12/25 05:58:00;;;;;;;14.03;13.53;;;11.40;99.90;;;;;;5117589;27;20711;-65
2023/12/25 06:00:27;;;;;;;14.13;13.63;;;11.50;99.90;;;;;;5118560;27;20226;-65
2023/12/25 06:02:53;;;;;;;13.87;13.37;;;11.40;99.90;;;;;;5120541;27;20205;-65
2023/12/25 06:05:21;;;;;;;13.53;13.10;;;11.50;99.90;;;;;;5118932;27;20248;-66
2023/12/25 06:07:48;;;;;;;13.73;13.23;;;11.40;99.90;;;;;;5121700;27;20312;-65
2023/12/25 06:10:16;;;;;;;13.90;13.40;;;11.40;99.90;;;;;;5118503;27;20218;-67
2023/12/25 06:12:43;;;;;;;14.10;13.60;;;11.30;99.90;;;;;;5121651;27;20563;-66
2023/12/25 06:15:10;;;;;;;14.00;13.50;;;11.30;99.90;;;;;;5123139;27;20202;-65
2023/12/25 06:17:37;;;;;;;13.47;13.07;;;11.40;99.90;;;;;;5137057;27;20217;-65
2023/12/25 06:20:06;;;;;;;14.00;13.50;;;11.40;99.90;;;;;;5131008;27;20225;-65
2023/12/25 06:22:32;;;;;;;12.27;11.87;;;11.30;99.90;;;;;;5120862;27;20268;-65
2023/12/25 06:24:59;;;;;;;13.23;12.83;;;11.30;99.90;;;;;;5120939;27;20197;-66
2023/12/25 06:27:27;;;;;;;13.63;13.17;;;11.20;99.90;;;;;;5117864;27;20202;-64
2023/12/25 06:29:54;;;;;;;13.73;13.23;;;11.30;99.90;;;;;;5120115;27;20707;-64
2023/12/25 06:32:20;;;;;;;14.37;13.87;;;11.20;99.90;;;;;;5113272;27;20198;-66
2023/12/25 06:34:47;;;;;;;13.70;13.20;;;11.20;99.90;;;;;;5120747;27;20201;-66
2023/12/25 06:37:14;;;;;;;12.90;12.50;;;11.30;99.90;;;;;;5122526;27;20217;-69
2023/12/25 06:39:41;;;;;;;14.13;13.63;;;11.30;99.90;;;;;;5129126;27;20245;-65
2023/12/25 06:42:07;;;;;;;13.60;13.10;;;11.20;99.90;;;;;;5123642;27;20206;-65
2023/12/25 06:44:37;;;;;;;14.00;13.50;;;11.30;99.90;;;;;;5123180;27;20201;-66
2023/12/25 06:47:04;;;;;;;12.97;12.57;;;11.30;99.90;;;;;;5118608;27;20213;-66
2023/12/25 06:49:31;;;;;;;12.63;12.23;;;11.30;99.90;;;;;;5115735;27;20218;-66
2023/12/25 06:51:58;;;;;;;12.87;12.47;;;11.30;99.90;;;;;;5120216;27;20284;-66
2023/12/25 06:54:25;;;;;;;13.83;13.33;;;11.30;99.90;;;;;;5122974;27;20202;-65
2023/12/25 06:56:52;;;;;;;12.63;12.23;;;11.30;99.90;;;;;;5124793;27;20331;-65
2023/12/25 06:59:19;;;;;;;13.13;12.73;;;11.30;99.90;;;;;;5119918;27;20619;-65
2023/12/25 07:01:47;;;;;;;13.33;12.93;;;11.20;99.90;;;;;;5123694;27;20201;-65
2023/12/25 07:04:14;;;;;;;13.77;13.27;;;11.20;99.90;;;;;;5120451;27;20569;-65
2023/12/25 07:06:41;;;;;;;14.50;14.00;;;11.20;99.90;;;;;;5123132;27;20198;-65
2023/12/25 07:09:09;;;;;;;13.63;13.13;;;11.20;99.90;;;;;;5120393;27;20568;-65
2023/12/25 07:11:36;;;;;;;14.17;13.67;;;11.20;99.90;;;;;;5117486;27;20534;-65
2023/12/25 07:14:02;;;;;;;13.60;13.17;;;11.20;99.90;;;;;;5118357;27;20201;-65
2023/12/25 07:16:29;;;;;;;14.37;13.87;;;11.10;99.90;;;;;;5117225;27;20225;-66
2023/12/25 07:18:57;;;;;;;13.97;13.47;;;11.20;99.90;;;;;;5121140;27;20204;-67
2023/12/25 07:21:24;;;;;;;13.27;12.87;;;11.20;99.90;;;;;;5117119;27;20669;-64
2023/12/25 07:23:52;;;;;;;13.37;12.97;;;11.20;99.90;;;;;;5120803;27;20205;-66
2023/12/25 07:26:19;;;;;;;13.27;12.87;;;11.20;99.90;;;;;;5116203;27;20202;-66
2023/12/25 07:28:47;;;;;;;14.30;13.80;;;11.20;99.90;;;;;;5120759;27;20201;-66
2023/12/25 07:31:15;;;;;;;14.10;13.60;;;11.20;99.90;;;;;;5120438;27;20229;-66
2023/12/25 07:33:42;;;;;;;14.13;13.63;;;11.20;99.90;;;;;;5119136;27;20213;-67
2023/12/25 07:36:10;;;;;;;13.37;12.97;;;11.10;99.90;;;;;;5119028;27;21000;-65
2023/12/25 07:38:39;;;;;;;14.00;13.50;;;11.20;99.90;;;;;;5119568;27;20204;-66
2023/12/25 07:41:08;;;;;;;13.57;13.13;;;11.10;99.90;;;;;;5123156;27;20221;-66
2023/12/25 07:43:35;;;;;;;13.97;13.47;;;11.10;99.90;;;;;;5119547;27;20206;-66
2023/12/25 07:46:02;;;;;;;13.70;13.20;;;11.10;99.90;;;;;;5122550;27;20205;-65
2023/12/25 07:48:29;;;;;;;13.73;13.23;;;11.10;99.90;;;;;;5118673;27;20657;-66
2023/12/25 07:50:56;;;;;;;13.90;13.40;;;11.10;99.90;;;;;;5117993;27;20233;-67
2023/12/25 07:53:24;;;;;;;13.57;13.07;;;11.00;99.90;;;;;;5116729;27;20201;-65
2023/12/25 07:55:51;;;;;;;13.53;13.07;;;11.10;99.90;;;;;;5116355;27;20208;-65
2023/12/25 07:58:18;;;;;;;13.20;12.80;;;11.10;99.90;;;;;;5112171;27;20218;-65
2023/12/25 08:00:45;;;;;;;12.73;12.33;;;11.10;99.90;;;;;;5115163;27;20233;-66
2023/12/25 08:03:12;;;;;;;13.60;13.10;;;11.10;99.90;;;;;;5108702;27;20408;-66
2023/12/25 08:05:39;;;;;;;14.00;13.50;;;11.00;99.90;;;;;;5113720;27;20688;-66
2023/12/25 08:08:07;;;;;;;12.97;12.57;;;11.00;99.90;;;;;;5108122;27;20203;-65
2023/12/25 08:10:35;;;;;;;13.33;12.93;;;11.00;99.90;;;;;;5107749;27;20230;-66
2023/12/25 08:13:02;;;;;;;13.77;13.27;;;11.10;99.90;;;;;;5108588;27;20205;-66
2023/12/25 08:15:30;;;;;;;13.80;13.30;;;11.10;99.90;;;;;;5112473;27;20699;-64
2023/12/25 08:17:56;;;;;;;12.83;12.33;;;11.10;99.90;;;;;;5101498;27;20287;-64
2023/12/25 08:20:23;;;;;;;12.47;12.07;;;11.10;99.90;;;;;;5101462;28;20229;-63
2023/12/25 08:22:50;;;;;;;13.00;12.60;;;11.00;99.90;;;;;;5101144;27;20205;-66
2023/12/25 08:25:17;;;;;;;12.83;12.43;;;11.00;99.90;;;;;;5106480;27;20656;-64
2023/12/25 08:27:45;;;;;;;13.57;13.07;;;11.00;99.90;;;;;;5101659;27;20209;-65
2023/12/25 08:30:13;;;;;;;12.20;11.80;;;11.00;99.90;;;;;;5102798;27;20275;-64
2023/12/25 08:32:39;;;;;;;12.87;12.47;;;11.00;99.90;;;;;;5111735;27;20198;-64
2023/12/25 08:35:06;;;;;;;12.83;12.43;;;10.90;99.90;;;;;;5104826;27;20597;-64
2023/12/25 08:37:33;;;;;;;12.17;11.77;;;10.90;99.90;;;;;;5106765;28;20222;-64
2023/12/25 08:40:00;;;;;;;12.70;12.30;;;10.90;99.90;;;;;;5113332;27;20227;-64
2023/12/25 08:42:26;;;;;;;13.40;12.97;;;10.90;99.90;;;;;;5110337;28;20206;-65
2023/12/25 08:44:55;;;;;;;12.17;11.77;;;10.90;99.90;;;;;;5110934;27;20201;-64
2023/12/25 08:47:22;;;;;;;13.80;12.57;;;11.00;99.90;;;;;;5113167;28;20262;-65
2023/12/25 08:49:49;;;;;;;12.68;12.27;;;10.90;99.90;;;;;;5118510;28;20346;-65
2023/12/25 08:52:17;;;;;;;13.43;12.93;;;10.90;99.90;;;;;;5123353;27;20278;-65
2023/12/25 08:54:44;;;;;;;11.63;11.23;;;11.00;99.90;;;;;;5120492;28;20274;-65
2023/12/25 08:57:10;;;;;;;11.57;11.17;;;11.00;99.90;;;;;;5123384;27;20233;-65
2023/12/25 08:59:37;;;;;;;12.33;11.93;;;11.00;99.90;;;;;;5122019;27;20270;-65
2023/12/25 09:02:06;;;;;;;12.33;11.93;;;11.00;99.90;;;;;;5132495;27;20585;-64
2023/12/25 09:04:32;;;;;;;12.17;11.77;;;10.90;99.90;;;;;;5122240;27;20198;-64
2023/12/25 09:06:59;;;;;;;13.03;12.63;;;10.90;99.90;;;;;;5123304;27;20559;-65
2023/12/25 09:09:26;;;;;;;12.70;12.30;;;11.00;99.90;;;;;;5123651;27;20281;-65
2023/12/25 09:11:53;;;;;;;12.53;12.13;;;11.00;99.90;;;;;;5121359;27;20209;-63
2023/12/25 09:14:21;;;;;;;14.60;14.10;;;11.00;99.90;;;;;;5121252;27;20213;-65
2023/12/25 09:16:48;;;;;;;13.23;12.80;;;11.00;99.90;;;;;;5121000;27;20197;-64
2023/12/25 09:19:16;;;;;;;12.13;11.73;;;11.00;99.90;;;;;;5120418;27;20242;-63
2023/12/25 09:21:43;;;;;;;12.50;12.10;;;11.00;99.90;;;;;;5120628;27;20199;-63
2023/12/25 09:24:10;;;;;;;12.30;11.90;;;11.00;99.90;;;;;;5120712;27;20536;-64
2023/12/25 09:26:37;;;;;;;12.10;11.70;;;11.00;99.90;;;;;;5116979;27;20210;-65
2023/12/25 09:29:03;;;;;;;12.13;11.73;;;11.00;99.90;;;;;;5119690;27;20197;-64
2023/12/25 09:31:30;;;;;;;11.77;11.37;;;11.10;99.90;;;;;;5120917;27;20247;-63
2023/12/25 09:33:57;;;;;;;11.30;10.90;;;11.10;99.90;;;;;;5124488;27;20250;-65
2023/12/25 09:36:26;;;;;;;11.60;11.20;;;11.10;99.90;;;;;;5133725;27;20194;-66
2023/12/25 09:38:52;;;;;;;11.40;11.00;;;11.10;99.90;;;;;;5131357;27;20274;-63
2023/12/25 09:41:19;;;;;;;11.80;11.40;;;11.10;99.90;;;;;;5124131;27;20198;-63
2023/12/25 09:43:47;;;;;;;12.13;11.73;;;11.20;99.90;;;;;;5120718;27;20205;-65
2023/12/25 09:46:15;;;;;;;11.70;11.30;;;11.10;99.90;;;;;;5121553;27;20194;-65
2023/12/25 09:48:42;;;;;;;11.95;11.55;;;11.10;99.90;;;;;;5124996;27;20276;-65
2023/12/25 09:51:11;;;;;;;11.90;11.50;;;11.10;99.90;;;;;;5126543;27;20222;-64
2023/12/25 09:53:39;;;;;;;12.40;12.00;;;11.20;99.90;;;;;;5127479;27;20293;-64
2023/12/25 09:56:10;;;;;;;11.80;11.40;;;11.20;99.90;;;;;;5122932;27;20213;-64
2023/12/25 09:58:38;;;;;;;12.07;11.67;;;11.30;99.90;;;;;;5124766;27;20213;-66
2023/12/25 10:01:06;;;;;;;11.53;11.13;;;11.20;99.90;;;;;;5120807;27;20214;-65
2023/12/25 10:03:34;;;;;;;11.80;11.40;;;11.30;99.90;;;;;;5121041;27;20289;-64
2023/12/25 10:06:02;;;;;;;12.00;11.60;;;11.30;99.90;;;;;;5125781;27;20554;-63
2023/12/25 10:08:29;;;;;;;11.87;11.47;;;11.30;99.90;;;;;;5122637;27;20277;-65
2023/12/25 10:10:57;;;;;;;12.03;11.63;;;11.40;99.90;;;;;;5121963;27;20221;-64
2023/12/25 10:13:24;;;;;;;11.57;11.17;;;11.40;99.90;;;;;;5122571;27;20202;-65
2023/12/25 10:15:51;;;;;;;11.80;11.40;;;11.40;99.90;;;;;;5122450;27;20274;-66
2023/12/25 10:18:20;;;;;;;11.70;11.30;;;11.40;99.90;;;;;;5122345;27;20218;-64
2023/12/25 10:20:56;;;;;;;11.97;11.57;;;11.40;99.90;;;;;;5123915;27;20221;-64
2023/12/25 10:23:28;;;;;;;11.90;11.50;;;11.40;99.90;;;;;;5118721;27;20202;-65
2023/12/25 10:25:55;;;;;;;11.13;10.73;;;11.40;99.90;;;;;;5124463;27;20201;-64
2023/12/25 10:28:26;;;;;;;11.40;11.00;;;11.50;99.90;;;;;;5119291;27;20190;-63
2023/12/25 10:30:59;;;;;;;11.40;11.00;;;11.50;99.90;;;;;;5122267;27;20719;-66
2023/12/25 10:33:26;;;;;;;11.63;11.23;;;11.50;99.90;;;;;;5116510;27;20206;-65
2023/12/25 10:36:03;;;;;;;11.80;11.40;;;11.50;99.90;;;;;;5126354;27;20208;-66
2023/12/25 10:38:33;;;;;;;11.77;11.37;;;11.50;99.90;;;;;;5118942;27;20232;-66
2023/12/25 10:41:18;;;;;;;11.70;11.30;;;11.50;99.90;;;;;;5121935;27;20223;-66
2023/12/25 10:43:51;;;;;;;11.53;11.13;;;11.60;99.90;;;;;;5118196;27;20208;-66
2023/12/25 10:46:21;;;;;;;11.80;11.40;;;11.60;99.90;;;;;;5125008;27;20228;-64
2023/12/25 10:48:50;;;;;;;11.77;11.37;;;11.60;99.90;;;;;;5127323;27;20198;-65
2023/12/25 10:51:24;;;;;;;11.10;10.70;;;11.60;99.90;;;;;;5119795;27;20262;-66
2023/12/25 10:53:51;;;;;;;11.60;11.20;;;11.50;99.90;;;;;;5126157;27;20288;-66
2023/12/25 10:56:20;;;;;;;11.43;11.03;;;11.50;99.90;;;;;;5126116;27;20266;-66
2023/12/25 10:58:50;;;;;;;11.87;11.47;;;11.60;99.90;;;;;;5119575;27;20298;-65
2023/12/25 11:01:22;;;;;;;11.43;11.03;;;11.60;99.90;;;;;;5119143;27;20214;-66
2023/12/25 11:03:50;;;;;;;11.70;11.30;;;11.60;99.90;;;;;;5121551;27;20641;-65
2023/12/25 11:06:17;;;;;;;11.60;11.20;;;11.60;99.90;;;;;;5119317;27;20214;-64
2023/12/25 11:08:44;;;;;;;11.17;10.77;;;11.60;99.90;;;;;;5125502;27;20572;-65
2023/12/25 11:11:12;;;;;;;11.40;11.00;;;11.60;99.90;;;;;;5116793;27;20238;-66
2023/12/25 11:13:40;;;;;;;11.40;11.00;;;11.60;99.90;;;;;;5114584;27;20270;-64
2023/12/25 11:16:08;;;;;;;11.10;10.70;;;11.50;99.90;;;;;;5121501;27;20212;-66
2023/12/25 11:18:37;;;;;;;11.60;11.20;;;11.50;99.90;;;;;;5123131;27;20215;-64
2023/12/25 11:21:05;;;;;;;11.67;11.27;;;11.50;99.90;;;;;;5123040;27;20278;-64
2023/12/25 11:23:36;;;;;;;12.00;11.60;;;11.50;99.90;;;;;;5116431;27;20201;-64
2023/12/25 11:26:07;;;;;;;11.67;11.27;;;11.50;99.90;;;;;;5122340;27;20292;-65
2023/12/25 11:28:36;;;;;;;11.67;11.27;;;11.50;99.90;;;;;;5137822;27;20276;-65
2023/12/25 11:31:04;;;;;;;11.87;11.47;;;11.40;99.90;;;;;;5134543;27;20228;-64
2023/12/25 11:33:46;;;;;;;11.87;11.47;;;11.30;99.90;;;;;;5121397;27;20205;-64
2023/12/25 11:36:14;;;;;;;11.77;11.37;;;11.30;99.90;;;;;;5120908;27;20234;-65
2023/12/25 11:38:45;;;;;;;11.67;11.27;;;11.30;99.90;;;;;;5118701;27;20266;-64
2023/12/25 11:41:17;;;;;;;11.83;11.43;;;11.40;99.90;;;;;;5110617;27;20219;-65
2023/12/25 11:43:46;;;;;;;12.30;11.90;;;11.40;99.90;;;;;;5105181;27;20252;-66
2023/12/25 11:46:19;;;;;;;11.40;11.00;;;11.40;99.90;;;;;;5103969;27;20206;-64
2023/12/25 11:48:50;;;;;;;12.23;11.83;;;11.40;99.90;;;;;;5107244;27;20208;-64
2023/12/25 11:51:22;;;;;;;11.40;11.00;;;11.40;99.90;;;;;;5114852;27;20897;-66
2023/12/25 11:53:51;;;;;;;11.53;11.13;;;11.50;99.90;;;;;;5117755;27;20201;-64
2023/12/25 11:56:18;;;;;;;11.50;11.10;;;11.50;99.90;;;;;;5116706;27;20553;-65
2023/12/25 11:58:45;;;;;;;12.60;12.20;;;11.60;99.90;;;;;;5113598;27;20594;-64
2023/12/25 12:01:16;;;;;;;11.40;11.00;;;11.60;99.90;;;;;;5118230;27;20221;-64
2023/12/25 12:03:43;;;;;;;11.50;11.10;;;11.60;99.90;;;;;;5120644;27;20247;-65
2023/12/25 12:06:11;;;;;;;12.30;11.90;;;11.60;99.90;;;;;;5125225;27;20212;-64
2023/12/25 12:08:38;;;;;;;11.97;11.57;;;11.60;99.90;;;;;;5119601;27;20202;-65
2023/12/25 12:11:05;;;;;;;12.17;11.77;;;11.50;99.90;;;;;;5114804;27;20229;-65
2023/12/25 12:13:32;;;;;;;11.20;10.80;;;11.60;99.90;;;;;;5119455;27;20236;-64
2023/12/25 12:15:59;;;;;;;11.30;10.90;;;11.60;99.90;;;;;;5120330;27;20236;-67
2023/12/25 12:18:26;;;;;;;11.10;10.70;;;11.60;99.90;;;;;;5115427;27;20249;-64
2023/12/25 12:20:54;;;;;;;11.50;11.10;;;11.70;99.90;;;;;;5119228;27;20221;-64
2023/12/25 12:23:22;;;;;;;10.97;10.57;;;11.70;99.90;;;;;;5105761;27;20206;-65
2023/12/25 12:25:50;;;;;;;11.77;11.37;;;11.70;99.90;;;;;;5130096;27;20212;-65
2023/12/25 12:28:16;;;;;;;11.20;10.80;;;11.70;99.90;;;;;;5114931;27;20275;-65
2023/12/25 12:30:44;;;;;;;11.60;11.20;;;11.70;99.90;;;;;;5120492;27;20222;-65